Sparta, Wisconsin
Current Conditions -  °F | °C
As of 6:55 AM on Wednesday 22 Oct 2014 (Local Time) from KCMY Reporting Station
Clear Clear  
Wind Chill: 26°   Ceiling: Unl
Heat Index: 26°   Visibility: 10mi
Dew Point: 25°   Wind: 0mph
Humidity: 96%   Direction: NA
Pressure: 30.32"   Gusts: NA
Location:  43.94°N, 90.82°W
Report Text: KCMY 221155Z AUTO 00000KT 10SM CLR M03/M04 A3032 RMK AO2 T10331039 11021 21041
Loading
Personal Weather Stations






























Interactive Weather Map
Tropical Storm Tracking
New forecast layout! Learn more

10-Day Weather Forecast

Advertisements
Track Severe Weather on mobile